OIMB  Birjand Airport

Add Bookmark

Birjand, Iran

Status
Operational
Latitude Longitude
32° 53' 53" N 59° 15' 57" E
32.898056 59.266111
Local (DST + 5) UTC (GMT + 4)
Oct 22, 2014 06:53 Oct 22, 2014 15:23
Sunrise-Sunset Local UTC
Begin Civil Twilight 05:16 01:46
Sunrise 05:41 02:11
Sunset 04:53 13:23
End Civil Twilight 05:18 13:48

Current Weather

METAR Observed MVFR
OIMB 221500Z 32008KT 7000 FEW040 18/02 Q1019 Wed, Oct 22, 2014 @ 15:00 UTC
(23 Minutes ago)
Marginal Visual Flight Rules
Wind Visibility Clouds Conditions
320° at 8 knots (15 kph) 7000 meters
  • Few at 4,000' AGL
  • No significant weather
Temperatures Readings Precipitation
Current Temp 18°C (64°F)
Dewpoint 2°C (36°F)
Humidity 34%
Altimeter 30.09"Hg
Sea Level Pressure 1019mb
Field Elevation 4891.73'
None Recorded

Additional weather within a 185.2km radius of OIMB

Map ICAO Location
OIMD 170.2km N (342°)

24 Hour Weather History

Loading
-

24 Hour Weather Graphs

Loading
-

CheckWX.com is intended as a tool to help pilots better visualize weather data. It is not intended as a substitute for an official weather briefing obtained from a Flight Service Station. CheckWX.com does not meet the FAA requirements for an official pre-flight weather briefing. Therefore, it's important that pilots still call and obtain an official FSS pre-flight weather briefing.